Leo Star I — ELXC6 — position and weather

sailwx.info

Track history (hours):
 
Tides and Currents Weather Stations Pressure Air Temp Water Temp Dewpoint Dewpoint Depression Visibility Wind Speed Wind Dir Waves Ship Positions

Leo Star I

Last reported at 2016-May-23 12:33 UTC. Time now 2016-May-25 07:19 UTC.
Position N 32°22' W 013°27'.

Length 157 m; draft 8.2 m.

Type: Cargo ship. MMSI: 636015065.

Date/timePositionNaut miles runAvg speedWind from/ knotsBaromVisibWave heightAir tempDewpointWater temp
2016-May-23 12:33N 32°22' W 013°27'16110.7
2016-May-22 21:29N 29°47' W 014°19'1010.7
2016-May-22 20:32N 29°37' W 014°23'1110.4
2016-May-22 19:29N 29°27' W 014°26'4310.5
2016-May-22 15:20N 28°45' W 014°40'810.8
2016-May-22 14:33N 28°37' W 014°43'1110.8
2016-May-22 13:33N 28°26' W 014°47'1111.3
2016-May-22 12:33N 28°16' W 014°51'1111.1
2016-May-22 11:33N 28°06' W 014°56'1110.9
2016-May-22 10:33N 27°55' W 015°00'1110.6
2016-May-22 09:33N 27°46' W 015°05'1010.1
2016-May-22 08:33N 27°36' W 015°09'  
2016-May-19 12:29N 16°01' W 017°47'2110.2
2016-May-19 10:25N 15°40' W 017°47'7910.8
2016-May-19 03:05N 14°21' W 017°48'1911.2
2016-May-19 01:25N 14°02' W 017°48'1011.1
2016-May-19 00:33N 13°53' W 017°47'1411.0
2016-May-18 23:15N 13°39' W 017°45'811.0
2016-May-18 22:33N 13°31' W 017°43'  
Track history (hours):
 
Tides and Currents Weather Stations Pressure Air Temp Water Temp Dewpoint Dewpoint Depression Visibility Wind Speed Wind Dir Waves Ship Positions

Leo Star I

Last reported at 2016-May-23 12:33 UTC. Time now 2016-May-25 07:19 UTC.
Position N 32°22' W 013°27'.

Length 157 m; draft 8.2 m.

Type: Cargo ship. MMSI: 636015065.

Date/timePositionNaut miles runAvg speedWind from/ knotsBaromVisibWave heightAir tempDewpointWater temp
2016-May-23 12:33N 32°22' W 013°27'16110.7
2016-May-22 21:29N 29°47' W 014°19'1010.7
2016-May-22 20:32N 29°37' W 014°23'1110.4
2016-May-22 19:29N 29°27' W 014°26'4310.5
2016-May-22 15:20N 28°45' W 014°40'810.8
2016-May-22 14:33N 28°37' W 014°43'1110.8
2016-May-22 13:33N 28°26' W 014°47'1111.3
2016-May-22 12:33N 28°16' W 014°51'1111.1
2016-May-22 11:33N 28°06' W 014°56'1110.9
2016-May-22 10:33N 27°55' W 015°00'1110.6
2016-May-22 09:33N 27°46' W 015°05'1010.1
2016-May-22 08:33N 27°36' W 015°09'  
2016-May-19 12:29N 16°01' W 017°47'2110.2
2016-May-19 10:25N 15°40' W 017°47'7910.8
2016-May-19 03:05N 14°21' W 017°48'1911.2
2016-May-19 01:25N 14°02' W 017°48'1011.1
2016-May-19 00:33N 13°53' W 017°47'1411.0
2016-May-18 23:15N 13°39' W 017°45'811.0
2016-May-18 22:33N 13°31' W 017°43'  

Dump ship's entire track history